Carlisle, Washington
Current Conditions -  °F | °C
As of 12:53 AM on Sunday 26 Oct 2014 (Local Time) from KHQM Reporting Station
Overcast Overcast  
Wind Chill: 52°   Ceiling: 8500
Heat Index: 52°   Visibility: 9mi
Dew Point: 45°   Wind: 13mph
Humidity: 77%   Direction: 230°SW
Pressure: 29.82"   Gusts: NA
Location:  47.1425°N, 124.097°W
Report Text: KHQM 260753Z AUTO 23011KT 9SM FEW046 BKN085 OVC110 11/07 A2982 RMK AO2 PK WND 27028/0729 RAB27E42 SLP100 P0000 T01110072 401500106
Loading
Personal Weather Stations






























Interactive Weather Map
Tropical Storm Tracking
New forecast layout! Learn more

10-Day Weather Forecast

Advertisements
Track Severe Weather on mobile